Time;durP1;ratioP1;P1;durP2;ratioP2;P2;SDS_P1;SDS_P2;PMS_P1;PMS_P2;Temp;Humidity;BMP_temperature;BMP_pressure;BME280_temperature;BME280_humidity;BME280_pressure;Samples;Min_cycle;Max_cycle;Signal;HPM_P1;HPM_P2
2023/08/15 00:00:36;;;;;;;7.65;5.78;;;23.10;99.90;;;;;;5016576;28;20030;-81
2023/08/15 00:03:02;;;;;;;8.13;5.60;;;23.00;99.90;;;;;;5015170;28;20033;-81
2023/08/15 00:05:27;;;;;;;12.32;6.35;;;23.10;99.90;;;;;;5014905;28;20553;-81
2023/08/15 00:07:54;;;;;;;10.10;6.53;;;23.10;99.90;;;;;;5015229;28;20034;-82
2023/08/15 00:10:20;;;;;;;11.45;7.32;;;23.10;99.90;;;;;;5016270;28;20472;-81
2023/08/15 00:12:46;;;;;;;8.90;6.38;;;23.10;99.90;;;;;;5014987;28;20033;-81
2023/08/15 00:15:12;;;;;;;10.60;7.38;;;23.10;99.90;;;;;;5014933;28;20080;-82
2023/08/15 00:17:38;;;;;;;10.05;8.30;;;23.10;99.90;;;;;;5016181;28;20030;-82
2023/08/15 00:20:04;;;;;;;12.00;6.88;;;23.00;99.90;;;;;;5015007;28;20032;-82
2023/08/15 00:22:30;;;;;;;12.35;8.27;;;23.10;99.90;;;;;;5014963;28;20028;-82
2023/08/15 00:24:56;;;;;;;9.18;7.00;;;23.10;99.90;;;;;;5014307;28;20026;-82
2023/08/15 00:27:21;;;;;;;11.43;7.63;;;23.10;99.90;;;;;;5026917;28;20022;-82
2023/08/15 00:29:47;;;;;;;12.80;7.82;;;23.10;99.90;;;;;;5046351;28;20108;-81
2023/08/15 00:32:13;;;;;;;8.30;7.25;;;23.00;99.90;;;;;;5034296;28;20025;-82
2023/08/15 00:34:39;;;;;;;10.02;7.68;;;23.00;99.90;;;;;;5035663;28;20021;-81
2023/08/15 00:37:13;;;;;;;8.80;6.88;;;23.00;99.90;;;;;;5034467;28;20538;-82
2023/08/15 00:39:39;;;;;;;8.38;7.15;;;23.00;99.90;;;;;;5016195;28;20018;-82
2023/08/15 00:42:05;;;;;;;9.73;7.00;;;23.00;99.90;;;;;;5020435;28;20109;-82
2023/08/15 00:44:30;;;;;;;10.10;7.45;;;23.00;99.90;;;;;;5034563;28;20463;-82
2023/08/15 00:46:56;;;;;;;11.50;8.13;;;22.90;99.90;;;;;;5035189;28;20033;-82
2023/08/15 00:49:22;;;;;;;10.93;7.43;;;23.00;99.90;;;;;;5015842;28;20376;-82
2023/08/15 00:51:48;;;;;;;9.10;6.97;;;22.90;99.90;;;;;;5015449;28;20075;-82
2023/08/15 00:54:15;;;;;;;11.75;8.15;;;22.90;99.90;;;;;;5015687;28;20030;-82
2023/08/15 00:56:41;;;;;;;9.23;6.82;;;22.90;99.90;;;;;;5013706;28;20022;-82
2023/08/15 00:59:06;;;;;;;12.75;8.20;;;22.90;99.90;;;;;;5047602;28;20032;-81
2023/08/15 01:01:33;;;;;;;12.15;8.48;;;22.90;99.90;;;;;;5014147;28;20174;-81
2023/08/15 01:04:01;;;;;;;9.10;6.30;;;22.90;99.90;;;;;;5014020;28;20049;-81
2023/08/15 01:06:27;;;;;;;13.27;7.00;;;22.80;99.90;;;;;;5047444;28;20049;-82
2023/08/15 01:08:53;;;;;;;10.70;7.03;;;22.80;99.90;;;;;;5015280;28;20033;-82
2023/08/15 01:11:18;;;;;;;6.95;5.75;;;22.80;99.90;;;;;;5047097;28;20030;-82
2023/08/15 01:13:50;;;;;;;10.48;6.30;;;22.70;99.90;;;;;;5014149;28;20460;-82
2023/08/15 01:16:27;;;;;;;13.10;6.28;;;22.70;99.90;;;;;;5013877;28;20030;-83
2023/08/15 01:19:01;;;;;;;11.27;5.50;;;22.70;99.90;;;;;;5015424;28;20029;-82
2023/08/15 01:21:40;;;;;;;9.48;5.70;;;22.60;99.90;;;;;;5013748;28;20014;-82
2023/08/15 01:24:06;;;;;;;11.02;5.28;;;22.70;99.90;;;;;;5046762;28;20056;-81
2023/08/15 01:26:32;;;;;;;10.70;5.32;;;22.60;99.90;;;;;;5046782;28;20037;-81
2023/08/15 01:28:58;;;;;;;10.65;4.45;;;22.60;99.90;;;;;;5033521;28;20518;-82
2023/08/15 01:31:40;;;;;;;6.97;4.30;;;22.60;99.90;;;;;;5033582;28;20029;-81
2023/08/15 01:34:28;;;;;;;13.05;4.72;;;22.60;99.90;;;;;;5033182;28;20036;-82
2023/08/15 01:37:03;;;;;;;11.10;4.05;;;22.50;99.90;;;;;;5033973;28;20037;-81
2023/08/15 01:39:30;;;;;;;7.63;3.67;;;22.50;99.90;;;;;;5034548;28;20045;-81
2023/08/15 01:42:01;;;;;;;6.80;3.20;;;22.50;99.90;;;;;;5032993;28;20018;-81
2023/08/15 01:44:29;;;;;;;9.13;3.45;;;22.50;99.90;;;;;;5033012;28;20444;-81
2023/08/15 01:46:56;;;;;;;7.15;3.55;;;22.50;99.90;;;;;;5034017;28;20033;-81
2023/08/15 01:49:22;;;;;;;6.15;3.58;;;22.50;99.90;;;;;;5033176;28;20494;-81
2023/08/15 01:51:48;;;;;;;9.80;3.78;;;22.50;99.90;;;;;;5028915;28;20072;-81
2023/08/15 01:54:15;;;;;;;8.90;3.22;;;22.40;99.90;;;;;;5012858;28;20495;-81
2023/08/15 01:56:41;;;;;;;6.40;2.80;;;22.40;99.90;;;;;;5030534;28;20033;-81
2023/08/15 01:59:08;;;;;;;11.07;3.63;;;22.40;99.90;;;;;;5032874;28;20115;-81
2023/08/15 02:01:34;;;;;;;10.52;3.33;;;22.40;99.90;;;;;;5033016;28;20022;-82
2023/08/15 02:04:00;;;;;;;9.45;3.30;;;22.40;99.90;;;;;;5032411;28;20032;-82
2023/08/15 02:06:25;;;;;;;8.98;3.17;;;22.30;99.90;;;;;;5033651;28;20033;-82
2023/08/15 02:08:51;;;;;;;13.35;3.50;;;22.30;99.90;;;;;;5031816;28;20021;-82
2023/08/15 02:11:17;;;;;;;7.65;3.20;;;22.30;99.90;;;;;;5033907;28;20033;-82
2023/08/15 02:13:43;;;;;;;10.60;3.20;;;22.30;99.90;;;;;;5032353;28;20045;-81
2023/08/15 02:16:08;;;;;;;10.10;3.40;;;22.30;99.90;;;;;;5032401;28;20033;-82
2023/08/15 02:18:34;;;;;;;10.85;3.25;;;22.20;99.90;;;;;;5032167;28;20032;-81
2023/08/15 02:21:00;;;;;;;5.78;3.00;;;22.30;99.90;;;;;;5032770;28;20025;-82
2023/08/15 02:23:26;;;;;;;8.05;3.88;;;22.20;99.90;;;;;;5032217;28;20116;-81
2023/08/15 02:25:51;;;;;;;5.85;2.90;;;22.30;99.90;;;;;;5032410;28;20033;-81
2023/08/15 02:28:17;;;;;;;10.38;3.88;;;22.20;99.90;;;;;;5031647;28;20037;-82
2023/08/15 02:30:43;;;;;;;4.07;2.80;;;22.20;99.90;;;;;;5033656;28;20037;-81
2023/08/15 02:33:09;;;;;;;11.18;3.78;;;22.20;99.90;;;;;;5032069;28;20052;-82
2023/08/15 02:35:39;;;;;;;8.13;3.20;;;22.20;99.90;;;;;;5032288;28;20037;-81
2023/08/15 02:38:05;;;;;;;10.05;3.35;;;22.10;99.90;;;;;;5031809;28;20037;-81
2023/08/15 02:40:30;;;;;;;8.15;2.80;;;22.10;99.90;;;;;;5032327;28;20022;-81
2023/08/15 02:42:56;;;;;;;8.88;3.03;;;22.10;99.90;;;;;;5033071;28;20028;-81
2023/08/15 02:45:22;;;;;;;8.40;3.30;;;22.10;99.90;;;;;;5032317;28;20025;-81
2023/08/15 02:47:48;;;;;;;8.75;3.78;;;22.10;99.90;;;;;;5028354;28;20141;-81
2023/08/15 02:50:15;;;;;;;12.45;3.67;;;22.10;99.90;;;;;;5012352;28;20381;-81
2023/08/15 02:52:41;;;;;;;8.60;3.53;;;22.10;99.90;;;;;;5028536;28;20373;-81
2023/08/15 02:55:07;;;;;;;13.05;3.63;;;22.00;99.90;;;;;;5013169;28;20040;-81
2023/08/15 02:57:33;;;;;;;10.75;3.85;;;21.90;99.90;;;;;;5013324;28;20503;-81
2023/08/15 02:59:59;;;;;;;12.13;3.20;;;21.90;99.90;;;;;;5013153;28;20022;-81
2023/08/15 03:02:25;;;;;;;7.38;3.00;;;21.90;99.90;;;;;;5013479;28;20048;-81
2023/08/15 03:04:50;;;;;;;9.00;3.50;;;21.90;99.90;;;;;;5011695;28;20041;-81
2023/08/15 03:07:16;;;;;;;8.95;3.60;;;21.90;99.90;;;;;;5011780;28;20034;-81
2023/08/15 03:09:42;;;;;;;8.90;3.35;;;21.90;99.90;;;;;;5013014;28;20083;-81
2023/08/15 03:12:08;;;;;;;10.15;3.17;;;21.90;99.90;;;;;;5022850;28;20025;-81
2023/08/15 03:14:34;;;;;;;9.07;3.63;;;21.90;99.90;;;;;;5031322;28;20021;-81
2023/08/15 03:17:02;;;;;;;11.13;3.42;;;21.90;99.90;;;;;;5031741;28;20024;-81
2023/08/15 03:19:27;;;;;;;10.50;3.38;;;21.90;99.90;;;;;;5031814;28;20021;-81
2023/08/15 03:21:53;;;;;;;9.82;3.90;;;21.80;99.90;;;;;;5031586;28;20025;-81
2023/08/15 03:24:19;;;;;;;11.68;3.35;;;21.80;99.90;;;;;;5032436;28;20040;-81
2023/08/15 03:26:45;;;;;;;7.45;3.58;;;21.80;99.90;;;;;;5032754;28;20157;-81
2023/08/15 03:29:11;;;;;;;6.78;3.28;;;21.80;99.90;;;;;;5031068;28;20091;-81
2023/08/15 03:31:36;;;;;;;9.52;3.42;;;21.70;99.90;;;;;;5031563;28;20013;-81
2023/08/15 03:34:02;;;;;;;8.38;3.53;;;21.60;99.90;;;;;;5031082;28;20502;-81
2023/08/15 03:36:28;;;;;;;13.40;3.58;;;21.60;99.90;;;;;;5030867;28;20121;-81
2023/08/15 03:38:54;;;;;;;10.10;3.50;;;21.70;99.90;;;;;;5031231;28;20052;-80
2023/08/15 03:41:21;;;;;;;10.32;3.45;;;21.70;99.90;;;;;;5030986;28;20014;-81
2023/08/15 03:43:47;;;;;;;10.85;3.40;;;21.70;99.90;;;;;;5030801;28;20029;-81
2023/08/15 03:46:12;;;;;;;7.13;3.42;;;21.70;99.90;;;;;;5023951;28;20024;-80
2023/08/15 03:48:38;;;;;;;11.73;3.38;;;21.70;99.90;;;;;;5011610;28;20372;-80
2023/08/15 03:51:04;;;;;;;7.90;4.00;;;21.60;99.90;;;;;;5011627;28;20041;-80
2023/08/15 03:53:30;;;;;;;9.65;3.55;;;21.60;99.90;;;;;;5011146;28;20045;-80
2023/08/15 03:55:56;;;;;;;8.50;3.40;;;21.60;99.90;;;;;;5011435;28;20488;-81
2023/08/15 03:58:22;;;;;;;8.15;4.07;;;21.60;99.90;;;;;;5012832;28;20050;-80
2023/08/15 04:00:49;;;;;;;9.10;3.85;;;21.60;99.90;;;;;;5012015;28;20022;-80
2023/08/15 04:03:15;;;;;;;8.93;3.65;;;21.60;99.90;;;;;;5011015;28;20022;-80
2023/08/15 04:05:45;;;;;;;13.65;4.15;;;21.50;99.90;;;;;;5012273;28;20087;-80
2023/08/15 04:08:11;;;;;;;7.68;3.65;;;21.50;99.90;;;;;;5011165;28;20069;-80
2023/08/15 04:10:39;;;;;;;8.70;3.40;;;21.50;99.90;;;;;;5010984;28;20045;-80
2023/08/15 04:13:09;;;;;;;10.07;4.20;;;21.40;99.90;;;;;;5011353;28;20037;-81
2023/08/15 04:15:36;;;;;;;7.32;3.75;;;21.40;99.90;;;;;;5029245;28;20026;-80
2023/08/15 04:18:04;;;;;;;8.00;3.70;;;21.40;99.90;;;;;;5030842;28;20021;-80
2023/08/15 04:20:30;;;;;;;14.25;4.63;;;21.40;99.90;;;;;;5031022;28;20099;-80
2023/08/15 04:22:55;;;;;;;14.50;4.47;;;21.40;99.90;;;;;;5030985;28;20483;-81
2023/08/15 04:25:21;;;;;;;10.13;3.88;;;21.40;99.90;;;;;;5032040;28;20463;-80
2023/08/15 04:27:47;;;;;;;6.68;3.80;;;21.40;99.90;;;;;;5031350;28;20034;-80
2023/08/15 04:30:13;;;;;;;12.18;4.47;;;21.30;99.90;;;;;;5032441;28;20033;-81
2023/08/15 04:32:39;;;;;;;13.35;4.38;;;21.30;99.90;;;;;;5034457;28;20026;-80
2023/08/15 04:35:06;;;;;;;11.82;4.50;;;21.30;99.90;;;;;;5035746;28;20033;-81
2023/08/15 04:37:31;;;;;;;12.20;4.18;;;21.30;99.90;;;;;;5034330;28;20072;-80
2023/08/15 04:39:57;;;;;;;11.38;3.95;;;21.20;99.90;;;;;;5035861;28;20018;-81
2023/08/15 04:42:23;;;;;;;11.43;4.38;;;21.20;99.90;;;;;;5035722;28;20022;-80
2023/08/15 04:44:49;;;;;;;12.60;4.85;;;21.10;99.90;;;;;;5035480;28;20037;-80
2023/08/15 04:47:16;;;;;;;11.25;4.03;;;21.20;99.90;;;;;;5035156;28;20022;-80
2023/08/15 04:49:42;;;;;;;12.43;4.03;;;21.20;99.90;;;;;;5035509;28;20025;-80
2023/08/15 04:52:09;;;;;;;11.90;4.40;;;21.10;99.90;;;;;;5034109;28;20037;-80
2023/08/15 04:54:34;;;;;;;11.77;3.88;;;21.10;99.90;;;;;;5035420;28;20026;-80
2023/08/15 04:57:00;;;;;;;13.85;4.97;;;21.10;99.90;;;;;;5034077;28;20022;-80
2023/08/15 04:59:26;;;;;;;9.63;3.78;;;21.10;99.90;;;;;;5034003;28;20030;-80
2023/08/15 05:01:52;;;;;;;14.00;4.97;;;21.00;99.90;;;;;;5034988;28;20030;-81
2023/08/15 05:04:18;;;;;;;15.57;4.90;;;21.00;99.90;;;;;;5034128;28;20041;-80
2023/08/15 05:06:43;;;;;;;16.33;5.30;;;21.00;99.90;;;;;;5035011;28;20033;-80
2023/08/15 05:09:09;;;;;;;11.60;5.28;;;20.90;99.90;;;;;;5033969;28;20025;-80
2023/08/15 05:11:35;;;;;;;9.73;5.05;;;20.90;99.90;;;;;;5034172;28;20084;-80
2023/08/15 05:14:01;;;;;;;12.48;5.30;;;20.90;99.90;;;;;;5033988;28;20033;-80
2023/08/15 05:16:27;;;;;;;14.23;5.93;;;20.90;99.90;;;;;;5044768;28;20080;-81
2023/08/15 05:18:53;;;;;;;12.73;5.70;;;20.90;99.90;;;;;;5048050;28;20021;-81
2023/08/15 05:21:19;;;;;;;13.70;4.95;;;20.90;99.90;;;;;;5044789;28;20036;-81
2023/08/15 05:23:44;;;;;;;12.70;5.82;;;20.90;99.90;;;;;;5047709;28;20034;-81
2023/08/15 05:26:10;;;;;;;13.82;5.75;;;20.90;99.90;;;;;;5045961;28;20030;-81
2023/08/15 05:28:36;;;;;;;13.02;5.70;;;20.90;99.90;;;;;;5047266;28;20064;-81
2023/08/15 05:31:02;;;;;;;15.70;5.55;;;20.90;99.90;;;;;;5039290;28;20029;-81
2023/08/15 05:33:28;;;;;;;12.15;4.55;;;21.00;99.90;;;;;;5033694;28;20029;-81
2023/08/15 05:35:54;;;;;;;7.82;4.63;;;20.90;99.90;;;;;;5034653;28;20030;-81
2023/08/15 05:38:20;;;;;;;8.63;4.20;;;20.90;99.90;;;;;;5034545;28;20029;-81
2023/08/15 05:40:45;;;;;;;11.15;3.97;;;20.90;99.90;;;;;;5035065;28;20064;-80
2023/08/15 05:43:11;;;;;;;8.57;3.40;;;20.90;99.90;;;;;;5032481;28;20125;-81
2023/08/15 05:45:37;;;;;;;8.20;3.90;;;20.70;99.90;;;;;;5022759;28;20030;-81
2023/08/15 05:48:03;;;;;;;14.85;4.45;;;20.80;99.90;;;;;;5029609;28;20030;-80
2023/08/15 05:50:29;;;;;;;9.10;3.90;;;20.80;99.90;;;;;;5033259;28;20430;-81
2023/08/15 05:52:55;;;;;;;10.57;4.18;;;20.90;99.90;;;;;;5032761;28;20022;-81
2023/08/15 05:55:21;;;;;;;6.90;4.35;;;20.80;99.90;;;;;;5034398;28;20483;-80
2023/08/15 05:57:46;;;;;;;10.23;4.63;;;20.90;99.90;;;;;;5033013;28;20017;-80
2023/08/15 06:00:13;;;;;;;13.82;4.57;;;20.90;99.90;;;;;;5034492;28;20029;-80
2023/08/15 06:02:39;;;;;;;14.20;4.55;;;20.90;99.90;;;;;;5032958;28;20080;-80
2023/08/15 06:05:06;;;;;;;14.02;4.70;;;20.90;99.90;;;;;;5033020;28;20483;-80
2023/08/15 06:07:32;;;;;;;11.55;4.80;;;20.90;99.90;;;;;;5034090;28;20395;-80
2023/08/15 06:09:57;;;;;;;14.57;5.65;;;20.90;99.90;;;;;;5032805;28;20056;-80
2023/08/15 06:12:23;;;;;;;12.10;4.53;;;21.00;99.90;;;;;;5032824;28;20021;-80
2023/08/15 06:14:49;;;;;;;13.57;4.75;;;21.00;99.90;;;;;;5033893;28;20021;-80
2023/08/15 06:17:17;;;;;;;13.50;4.60;;;20.90;99.90;;;;;;5032723;28;20026;-80
2023/08/15 06:19:42;;;;;;;11.15;4.78;;;21.00;99.90;;;;;;5020380;28;20525;-80
2023/08/15 06:22:08;;;;;;;12.10;4.03;;;21.00;99.90;;;;;;5023411;28;20025;-80
2023/08/15 06:24:34;;;;;;;10.73;4.53;;;21.00;99.90;;;;;;5032407;28;20029;-80
2023/08/15 06:27:00;;;;;;;11.70;4.20;;;21.10;99.90;;;;;;5033923;28;20025;-80
2023/08/15 06:29:26;;;;;;;10.55;3.85;;;21.10;99.90;;;;;;5032412;28;20463;-80
2023/08/15 06:31:53;;;;;;;11.80;4.00;;;21.20;99.90;;;;;;5032544;28;20025;-80
2023/08/15 06:34:19;;;;;;;14.73;3.63;;;21.10;99.90;;;;;;5031868;28;20037;-80
2023/08/15 06:36:45;;;;;;;14.07;3.75;;;21.10;99.90;;;;;;5032614;28;20451;-80
2023/08/15 06:39:11;;;;;;;11.35;3.28;;;21.20;99.90;;;;;;5031989;28;20060;-80
2023/08/15 06:41:37;;;;;;;10.15;4.10;;;21.20;99.90;;;;;;5032513;28;20031;-80
2023/08/15 06:44:04;;;;;;;10.30;3.50;;;21.20;99.90;;;;;;5035432;28;20029;-80
2023/08/15 06:46:30;;;;;;;7.35;3.03;;;21.30;99.90;;;;;;5038135;28;20045;-80
2023/08/15 06:48:55;;;;;;;10.65;3.70;;;21.30;99.90;;;;;;5032748;28;20056;-79
2023/08/15 06:51:21;;;;;;;10.00;3.30;;;21.40;99.90;;;;;;5032986;28;20032;-80
2023/08/15 06:53:49;;;;;;;7.75;3.63;;;21.40;99.90;;;;;;5032697;28;20037;-80
2023/08/15 06:56:15;;;;;;;17.33;3.88;;;21.40;99.90;;;;;;5033234;28;20542;-79
2023/08/15 06:58:41;;;;;;;6.60;3.35;;;21.40;99.90;;;;;;5032661;28;20029;-79
2023/08/15 07:01:07;;;;;;;12.52;3.38;;;21.40;99.90;;;;;;5032739;28;20108;-80
2023/08/15 07:03:33;;;;;;;9.52;3.28;;;21.40;99.90;;;;;;5033017;28;20774;-80
2023/08/15 07:05:59;;;;;;;12.63;3.75;;;21.50;99.90;;;;;;5032892;28;20128;-80
2023/08/15 07:08:25;;;;;;;8.75;3.97;;;21.50;99.90;;;;;;5032958;28;20184;-80
2023/08/15 07:10:56;;;;;;;11.57;4.40;;;21.60;99.90;;;;;;5032423;28;20494;-80
2023/08/15 07:13:22;;;;;;;7.63;3.40;;;21.70;99.90;;;;;;5032777;28;20040;-80
2023/08/15 07:15:55;;;;;;;8.38;4.03;;;21.80;99.90;;;;;;5033758;28;20029;-80
2023/08/15 07:18:21;;;;;;;9.75;3.60;;;21.80;99.90;;;;;;5033371;28;20387;-80
2023/08/15 07:20:48;;;;;;;13.52;3.25;;;21.90;99.90;;;;;;5029265;28;20487;-80
2023/08/15 07:23:15;;;;;;;7.82;3.30;;;22.00;99.90;;;;;;5013541;28;20028;-80
2023/08/15 07:25:41;;;;;;;11.65;3.45;;;22.10;99.90;;;;;;5012956;28;20733;-80
2023/08/15 07:28:08;;;;;;;9.57;3.20;;;22.10;99.90;;;;;;5015249;28;20033;-80
2023/08/15 07:30:33;;;;;;;9.82;3.63;;;22.10;99.90;;;;;;5013819;28;20034;-78
2023/08/15 07:32:59;;;;;;;11.73;3.75;;;22.20;99.90;;;;;;5011754;28;20113;-80
2023/08/15 07:35:25;;;;;;;8.30;3.10;;;22.30;99.90;;;;;;5013311;28;20416;-80
2023/08/15 07:37:51;;;;;;;8.80;3.10;;;22.30;99.90;;;;;;5032478;28;20091;-80
2023/08/15 07:40:21;;;;;;;7.80;2.67;;;22.50;99.90;;;;;;5020301;28;20022;-80
2023/08/15 07:42:49;;;;;;;9.55;3.00;;;22.60;99.90;;;;;;5031322;28;20442;-80
2023/08/15 07:45:16;;;;;;;11.55;3.33;;;22.70;99.90;;;;;;5036723;28;20056;-80
2023/08/15 07:47:42;;;;;;;6.57;3.22;;;22.80;99.90;;;;;;5033064;28;20084;-80
2023/08/15 07:50:28;;;;;;;5.97;2.55;;;22.70;99.90;;;;;;5031339;28;20518;-80
2023/08/15 07:52:54;;;;;;;6.63;2.97;;;22.70;99.90;;;;;;5022983;28;20088;-80
2023/08/15 07:55:21;;;;;;;9.43;3.03;;;22.80;99.90;;;;;;5032082;28;20025;-80
2023/08/15 07:57:47;;;;;;;14.80;3.15;;;22.90;99.90;;;;;;5031732;28;20025;-80
2023/08/15 08:00:14;;;;;;;11.02;3.00;;;23.00;99.90;;;;;;5031314;28;20026;-80
2023/08/15 08:02:41;;;;;;;9.07;3.00;;;23.00;99.90;;;;;;5031403;28;20104;-79
2023/08/15 08:05:09;;;;;;;7.97;3.28;;;23.00;99.90;;;;;;5031499;28;20033;-80
2023/08/15 08:07:36;;;;;;;8.82;2.92;;;23.10;99.90;;;;;;5035417;28;20041;-80
2023/08/15 08:10:03;;;;;;;10.25;3.00;;;23.10;99.90;;;;;;5027663;28;20036;-79
2023/08/15 08:12:30;;;;;;;10.60;2.85;;;23.10;99.90;;;;;;5015590;28;20034;-80
2023/08/15 08:14:56;;;;;;;8.90;2.92;;;23.10;99.90;;;;;;5016568;28;20019;-80
2023/08/15 08:17:23;;;;;;;8.15;3.40;;;23.10;99.90;;;;;;5015496;28;20056;-79
2023/08/15 08:19:49;;;;;;;9.32;2.95;;;23.20;99.90;;;;;;5016467;28;20496;-79
2023/08/15 08:22:15;;;;;;;6.85;2.80;;;23.20;99.90;;;;;;5014899;28;20062;-80
2023/08/15 08:24:40;;;;;;;6.88;3.00;;;23.30;99.90;;;;;;5016370;28;20024;-80
2023/08/15 08:27:06;;;;;;;8.30;2.97;;;23.30;99.90;;;;;;5014866;28;20026;-80
2023/08/15 08:29:32;;;;;;;11.30;3.30;;;23.30;99.90;;;;;;5014807;28;20048;-80
2023/08/15 08:31:58;;;;;;;8.85;3.40;;;23.30;99.90;;;;;;5015022;28;20365;-80
2023/08/15 08:34:24;;;;;;;13.50;3.22;;;23.40;99.90;;;;;;5014690;28;20033;-80
2023/08/15 08:36:50;;;;;;;6.90;3.00;;;23.40;99.90;;;;;;5014415;28;20033;-80
2023/08/15 08:39:15;;;;;;;5.38;2.90;;;23.50;99.90;;;;;;5034425;28;20021;-80
2023/08/15 08:41:41;;;;;;;7.78;3.80;;;23.60;99.90;;;;;;5038088;28;20025;-80
2023/08/15 08:44:09;;;;;;;11.23;3.70;;;23.70;99.90;;;;;;5037004;28;20029;-80
2023/08/15 08:46:36;;;;;;;10.52;3.35;;;23.80;99.90;;;;;;5035944;28;20018;-80
2023/08/15 08:49:04;;;;;;;11.63;3.40;;;24.00;99.90;;;;;;5035203;28;20027;-80
2023/08/15 08:51:32;;;;;;;8.65;3.25;;;24.00;99.90;;;;;;5035475;28;20036;-80
2023/08/15 08:53:59;;;;;;;10.90;4.32;;;24.00;99.90;;;;;;5036259;28;20029;-80
2023/08/15 08:56:25;;;;;;;10.00;3.67;;;24.00;99.90;;;;;;5032756;28;20025;-80
2023/08/15 08:59:11;;;;;;;7.95;3.38;;;24.00;99.90;;;;;;5035106;28;20041;-80
2023/08/15 09:01:39;;;;;;;8.82;3.45;;;24.20;99.90;;;;;;5034599;28;20048;-80
2023/08/15 09:04:05;;;;;;;7.65;3.08;;;24.30;99.90;;;;;;5024508;28;20018;-80
2023/08/15 09:06:30;;;;;;;9.25;2.70;;;24.50;99.90;;;;;;5015513;28;20033;-80
2023/08/15 09:08:59;;;;;;;9.35;3.15;;;24.70;99.90;;;;;;5021806;28;20088;-80
2023/08/15 09:11:35;;;;;;;13.38;3.28;;;24.80;99.90;;;;;;5050905;28;20049;-80
2023/08/15 09:14:05;;;;;;;8.73;3.58;;;25.10;99.90;;;;;;5034153;28;20048;-80
2023/08/15 09:16:32;;;;;;;8.13;3.53;;;25.30;99.90;;;;;;5030831;28;20018;-80
2023/08/15 09:19:04;;;;;;;11.00;3.40;;;25.30;99.90;;;;;;5021311;28;20033;-80
2023/08/15 09:21:30;;;;;;;10.05;3.25;;;25.40;99.90;;;;;;5034953;28;20025;-80
2023/08/15 09:23:59;;;;;;;10.52;3.05;;;25.50;99.90;;;;;;5036499;28;20036;-80
2023/08/15 09:26:31;;;;;;;7.75;3.22;;;25.50;99.90;;;;;;5037408;28;20093;-79
2023/08/15 09:28:57;;;;;;;;;;;25.40;99.90;;;;;;5031085;28;20033;-80
2023/08/15 09:31:23;;;;;;;8.27;3.10;;;25.40;99.90;;;;;;5026378;28;19912;-80
2023/08/15 09:33:49;;;;;;;5.43;2.38;;;25.40;99.90;;;;;;5014594;28;20025;-79
2023/08/15 09:36:15;;;;;;;12.07;3.25;;;25.40;99.90;;;;;;5014741;28;20036;-79
2023/08/15 09:38:41;;;;;;;7.53;2.85;;;25.40;99.90;;;;;;5014164;28;20030;-80
2023/08/15 09:41:12;;;;;;;8.40;2.88;;;25.40;99.90;;;;;;5013482;28;20057;-80
2023/08/15 09:43:58;;;;;;;11.07;3.05;;;25.20;99.90;;;;;;5029316;28;20030;-80
2023/08/15 09:46:24;;;;;;;5.18;2.72;;;25.30;99.90;;;;;;5049243;28;20029;-80
2023/08/15 09:48:51;;;;;;;10.10;2.80;;;25.40;99.90;;;;;;5031175;28;20399;-80
2023/08/15 09:51:18;;;;;;;8.70;2.63;;;25.40;99.90;;;;;;5033209;28;20071;-79
2023/08/15 09:53:45;;;;;;;8.25;2.80;;;25.40;99.90;;;;;;5032417;28;20033;-80
2023/08/15 09:56:12;;;;;;;8.10;2.80;;;25.30;99.90;;;;;;5033000;28;20475;-80
2023/08/15 09:58:38;;;;;;;9.43;3.15;;;25.40;99.90;;;;;;5032825;28;20029;-80
2023/08/15 10:01:08;;;;;;;6.82;3.15;;;25.50;99.90;;;;;;5032861;28;20036;-80
2023/08/15 10:03:37;;;;;;;8.60;3.00;;;25.60;99.90;;;;;;5032780;28;20116;-80
2023/08/15 10:06:06;;;;;;;9.35;3.40;;;25.80;99.90;;;;;;5034641;28;20034;-80
2023/08/15 10:08:32;;;;;;;7.00;3.13;;;25.90;99.90;;;;;;5032815;28;20570;-80
2023/08/15 10:10:58;;;;;;;5.47;2.58;;;25.80;99.90;;;;;;5034189;28;20051;-80
2023/08/15 10:13:31;;;;;;;9.10;3.00;;;25.90;99.90;;;;;;5032492;28;20037;-80
2023/08/15 10:15:58;;;;;;;5.88;3.03;;;26.00;99.90;;;;;;5032655;28;20120;-80
2023/08/15 10:18:25;;;;;;;7.90;2.65;;;26.10;99.90;;;;;;5032366;28;20021;-80
2023/08/15 10:20:52;;;;;;;5.05;2.53;;;26.20;99.90;;;;;;5032650;28;20025;-80
2023/08/15 10:23:31;;;;;;;5.80;2.67;;;26.30;99.90;;;;;;5032271;28;20026;-80
2023/08/15 10:25:58;;;;;;;9.95;2.72;;;26.40;99.90;;;;;;5032592;28;20021;-80
2023/08/15 10:28:27;;;;;;;12.30;2.75;;;26.30;99.90;;;;;;5031867;28;20026;-80
2023/08/15 10:30:54;;;;;;;7.38;2.67;;;26.40;99.90;;;;;;5033656;28;20075;-80
2023/08/15 10:33:22;;;;;;;7.45;2.40;;;26.40;99.90;;;;;;5032352;28;20473;-80
2023/08/15 10:35:54;;;;;;;7.75;3.10;;;26.50;99.90;;;;;;5032109;28;20037;-80
2023/08/15 10:38:31;;;;;;;7.65;2.58;;;26.60;99.90;;;;;;5033437;28;20036;-80
2023/08/15 10:41:06;;;;;;;6.88;2.72;;;26.60;99.90;;;;;;5032205;28;20127;-80
2023/08/15 10:43:36;;;;;;;7.80;2.60;;;26.60;99.90;;;;;;5048614;28;20057;-80
2023/08/15 10:46:06;;;;;;;5.63;2.90;;;26.60;99.90;;;;;;5033263;28;20026;-80
2023/08/15 10:48:39;;;;;;;7.45;3.00;;;26.60;99.90;;;;;;5030933;28;20491;-80
2023/08/15 10:51:14;;;;;;;8.32;2.90;;;26.60;99.90;;;;;;5031335;28;20076;-80
2023/08/15 10:53:40;;;;;;;10.48;2.90;;;26.50;99.90;;;;;;5031281;28;20025;-80
2023/08/15 10:56:08;;;;;;;8.00;2.70;;;26.60;99.90;;;;;;5031845;28;20025;-79
2023/08/15 10:58:34;;;;;;;9.07;3.45;;;26.60;99.90;;;;;;5031811;28;20022;-80
2023/08/15 11:01:01;;;;;;;10.85;3.38;;;26.80;99.90;;;;;;5031759;28;20017;-80
2023/08/15 11:03:26;;;;;;;7.47;2.60;;;26.80;99.90;;;;;;5033007;28;20035;-80
2023/08/15 11:05:52;;;;;;;7.35;2.50;;;26.80;99.90;;;;;;5033504;28;20029;-80
2023/08/15 11:08:19;;;;;;;6.63;2.65;;;26.80;99.90;;;;;;5033024;28;20037;-80
2023/08/15 11:10:49;;;;;;;4.53;2.47;;;26.80;99.90;;;;;;5032975;28;20017;-80
2023/08/15 11:13:18;;;;;;;8.77;2.85;;;27.10;99.90;;;;;;5031637;28;20028;-80
2023/08/15 11:15:45;;;;;;;5.88;2.22;;;27.20;99.90;;;;;;5031228;28;20021;-80
2023/08/15 11:18:11;;;;;;;5.05;2.40;;;27.30;99.90;;;;;;5031148;28;20060;-80
2023/08/15 11:20:38;;;;;;;7.72;3.03;;;27.30;99.90;;;;;;5032629;28;20021;-80
2023/08/15 11:23:04;;;;;;;6.60;2.90;;;27.30;99.90;;;;;;5031550;28;20022;-80
2023/08/15 11:25:30;;;;;;;6.82;2.78;;;27.40;99.90;;;;;;5031066;28;20017;-80
2023/08/15 11:27:55;;;;;;;6.22;2.65;;;27.40;99.90;;;;;;5031163;28;20048;-80
2023/08/15 11:30:21;;;;;;;7.28;2.60;;;27.60;99.90;;;;;;5032662;28;20087;-80
2023/08/15 11:32:48;;;;;;;10.07;3.53;;;27.50;99.90;;;;;;5032650;28;20025;-80
2023/08/15 11:35:14;;;;;;;4.40;2.80;;;27.60;99.90;;;;;;5031289;28;20022;-80
2023/08/15 11:37:42;;;;;;;7.75;2.78;;;27.70;99.90;;;;;;5031390;28;20036;-80
2023/08/15 11:40:08;;;;;;;8.27;2.83;;;27.80;99.90;;;;;;5030194;28;20029;-80
2023/08/15 11:42:35;;;;;;;6.20;2.83;;;27.70;99.90;;;;;;5030953;28;20021;-79
2023/08/15 11:45:07;;;;;;;5.82;2.63;;;27.50;99.90;;;;;;5031046;28;20411;-80
2023/08/15 11:47:33;;;;;;;5.15;2.25;;;27.70;99.90;;;;;;5027614;28;20025;-79
2023/08/15 11:50:06;;;;;;;7.10;2.58;;;27.80;99.90;;;;;;5027537;28;20110;-80
2023/08/15 11:52:40;;;;;;;7.15;2.88;;;27.70;99.90;;;;;;5011440;28;20014;-80
2023/08/15 11:55:06;;;;;;;4.85;2.50;;;27.90;99.90;;;;;;5011079;28;20033;-80
2023/08/15 11:57:35;;;;;;;6.85;2.70;;;28.10;99.90;;;;;;5027155;28;20549;-79
2023/08/15 12:00:01;;;;;;;4.10;2.45;;;28.10;99.90;;;;;;5010703;28;20033;-80
2023/08/15 12:02:28;;;;;;;7.00;2.70;;;28.00;99.90;;;;;;5023891;28;20113;-79
2023/08/15 12:04:53;;;;;;;8.52;2.58;;;28.00;99.90;;;;;;5022338;28;20059;-80
2023/08/15 12:07:19;;;;;;;6.72;2.80;;;28.10;99.90;;;;;;5031327;28;20124;-80
2023/08/15 12:09:46;;;;;;;8.40;2.40;;;28.00;99.90;;;;;;5031221;28;20028;-80
2023/08/15 12:12:19;;;;;;;4.85;2.47;;;27.80;99.90;;;;;;5030817;28;20502;-80
2023/08/15 12:14:45;;;;;;;3.90;2.60;;;27.90;99.90;;;;;;5012074;28;20499;-80
2023/08/15 12:17:11;;;;;;;5.05;2.22;;;27.80;99.90;;;;;;5024645;28;20021;-80
2023/08/15 12:19:36;;;;;;;5.47;2.38;;;28.10;99.90;;;;;;5030900;28;20124;-80
2023/08/15 12:22:05;;;;;;;3.63;1.83;;;28.40;99.90;;;;;;5030673;28;20573;-79
2023/08/15 12:24:31;;;;;;;4.15;2.00;;;28.70;99.90;;;;;;5030414;28;20112;-80
2023/08/15 12:26:56;;;;;;;5.75;1.77;;;28.50;99.90;;;;;;5030478;28;20506;-79
2023/08/15 12:29:22;;;;;;;6.15;2.50;;;28.70;99.90;;;;;;5030681;28;20036;-79
2023/08/15 12:31:48;;;;;;;9.45;2.33;;;28.70;99.90;;;;;;5031458;28;20040;-79
2023/08/15 12:34:14;;;;;;;3.53;2.28;;;28.80;99.90;;;;;;5031164;28;20599;-79
2023/08/15 12:36:48;;;;;;;4.88;2.20;;;28.70;99.90;;;;;;5016293;28;20034;-79
2023/08/15 12:39:16;;;;;;;5.78;2.50;;;28.70;99.90;;;;;;5034215;28;20117;-77
2023/08/15 12:41:42;;;;;;;6.45;2.75;;;28.60;99.90;;;;;;5032435;28;20018;-76